createdAt,value
2022-09-06T00:04:40.517Z,1.55
2022-09-06T00:09:44.151Z,1.70
2022-09-06T00:14:49.227Z,1.48
2022-09-06T00:19:52.921Z,1.83
2022-09-06T00:24:57.180Z,1.88
2022-09-06T00:30:04.604Z,2.08
2022-09-06T00:35:08.646Z,2.08
2022-09-06T00:40:12.787Z,2.53
2022-09-06T00:45:17.831Z,2.33
2022-09-06T00:50:21.683Z,2.08
2022-09-06T00:55:26.317Z,2.50
2022-09-06T01:00:31.657Z,2.33
2022-09-06T01:05:45.188Z,3.03
2022-09-06T01:11:17.126Z,2.60
2022-09-06T01:16:30.382Z,3.10
2022-09-06T01:21:44.829Z,2.95
2022-09-06T01:27:28.126Z,2.97
2022-09-06T01:32:41.998Z,3.05
2022-09-06T01:37:45.946Z,2.97
2022-09-06T01:42:51.113Z,2.85
2022-09-06T01:48:10.887Z,3.17
2022-09-06T01:53:28.639Z,3.10
2022-09-06T01:58:50.186Z,3.30
2022-09-06T02:04:01.433Z,3.08
2022-09-06T02:09:08.062Z,3.22
2022-09-06T02:14:16.366Z,3.92
2022-09-06T02:19:28.776Z,3.42
2022-09-06T02:24:35.186Z,3.50
2022-09-06T02:29:39.288Z,3.30
2022-09-06T02:34:46.212Z,3.70
2022-09-06T02:39:50.035Z,3.30
2022-09-06T02:44:53.777Z,3.60
2022-09-06T02:49:58.844Z,3.53
2022-09-06T02:55:02.499Z,3.50
2022-09-06T03:00:07.387Z,3.55
2022-09-06T03:05:12.503Z,4.18
2022-09-06T03:10:16.476Z,3.83
2022-09-06T03:15:20.978Z,4.32
2022-09-06T03:20:27.211Z,4.50
2022-09-06T03:25:30.852Z,4.45
2022-09-06T03:30:34.720Z,4.03
2022-09-06T03:35:39.886Z,4.10
2022-09-06T03:40:46.276Z,3.88
2022-09-06T03:45:51.756Z,4.40
2022-09-06T03:50:58.750Z,4.20
2022-09-06T03:56:02.431Z,4.28
2022-09-06T04:01:09.543Z,3.88
2022-09-06T04:06:14.816Z,4.20
2022-09-06T04:11:18.439Z,3.75
2022-09-06T04:16:22.236Z,4.30
2022-09-06T04:21:28.083Z,4.63
2022-09-06T04:26:31.929Z,4.65
2022-09-06T04:31:35.695Z,4.07
2022-09-06T04:36:40.726Z,4.88
2022-09-06T04:41:45.443Z,3.90
2022-09-06T04:46:49.150Z,4.50
2022-09-06T04:51:54.215Z,4.30
2022-09-06T04:56:57.949Z,4.72
2022-09-06T05:02:01.761Z,4.55
2022-09-06T05:07:08.801Z,4.47
2022-09-06T05:12:14.497Z,4.38
2022-09-06T05:17:20.006Z,4.53
2022-09-06T05:27:29.791Z,4.25
2022-09-06T05:32:33.438Z,4.63
2022-09-06T05:37:50.154Z,4.75
2022-09-06T05:47:57.723Z,4.63
2022-09-06T05:53:02.931Z,3.97
2022-09-06T05:58:08.927Z,4.38
2022-09-06T06:03:12.697Z,4.87
2022-09-06T06:08:18.369Z,4.95
2022-09-06T06:13:31.923Z,5.43
2022-09-06T06:18:52.280Z,4.55
2022-09-06T06:23:59.613Z,5.97
2022-09-06T06:29:12.898Z,5.38
2022-09-06T06:34:35.365Z,5.65
2022-09-06T06:39:40.718Z,5.32
2022-09-06T06:44:44.621Z,5.47
2022-09-06T06:49:48.611Z,5.88
2022-09-06T06:54:53.628Z,5.63
2022-09-06T06:59:57.485Z,5.72
2022-09-06T07:05:01.276Z,4.93
2022-09-06T07:15:31.166Z,5.40
2022-09-06T07:26:00.074Z,4.95
2022-09-06T07:31:04.182Z,5.20
2022-09-06T07:36:09.592Z,4.70
2022-09-06T07:41:14.678Z,4.30
2022-09-06T07:46:18.929Z,4.03
2022-09-06T07:51:23.468Z,4.18
2022-09-06T07:56:28.507Z,3.80
2022-09-06T08:01:34.310Z,3.70
2022-09-06T08:12:07.490Z,4.00
2022-09-06T08:17:11.676Z,3.17
2022-09-06T08:22:15.379Z,3.63
2022-09-06T08:27:20.430Z,3.60
2022-09-06T08:32:24.179Z,3.47
2022-09-06T08:37:30.804Z,2.95
2022-09-06T08:42:39.605Z,2.65
2022-09-06T08:47:43.369Z,2.95
2022-09-06T08:53:17.860Z,2.88
2022-09-06T08:58:42.449Z,2.78
2022-09-06T09:03:46.907Z,2.50
2022-09-06T09:09:02.904Z,2.55
2022-09-06T09:14:16.570Z,3.10
2022-09-06T09:19:20.456Z,2.60
2022-09-06T09:24:25.004Z,3.00
2022-09-06T09:29:35.665Z,3.35
2022-09-06T09:34:41.200Z,3.20
2022-09-06T09:39:45.334Z,2.83
2022-09-06T09:44:50.738Z,2.42
2022-09-06T09:49:54.629Z,2.78
2022-09-06T09:55:01.382Z,2.55
2022-09-06T10:00:13.200Z,2.60
2022-09-06T10:05:22.292Z,2.72
2022-09-06T10:10:27.898Z,2.70
2022-09-06T10:15:37.592Z,3.00
2022-09-06T10:20:45.036Z,3.30
2022-09-06T10:25:51.933Z,2.50
2022-09-06T10:31:27.570Z,2.65
2022-09-06T10:36:36.137Z,8.35
2022-09-06T10:41:57.148Z,2.72
2022-09-06T10:47:11.471Z,3.22
2022-09-06T10:52:20.971Z,3.40
2022-09-06T11:08:51.214Z,2.83
2022-09-06T11:13:57.086Z,2.25
2022-09-06T11:19:07.131Z,2.42
2022-09-06T11:24:15.731Z,3.10
2022-09-06T11:29:23.076Z,2.25
2022-09-06T11:34:30.646Z,1.65
2022-09-06T11:45:21.538Z,2.40
2022-09-06T11:51:01.466Z,1.70
2022-09-06T11:56:18.093Z,1.77
2022-09-06T12:01:37.085Z,1.60
2022-09-06T12:06:44.257Z,1.40
2022-09-06T12:11:48.721Z,1.58
2022-09-06T12:17:29.902Z,1.38
2022-09-06T12:23:05.298Z,1.95
2022-09-06T12:28:13.497Z,1.98
2022-09-06T12:33:24.423Z,1.10
2022-09-06T12:38:29.594Z,1.10
2022-09-06T12:43:36.136Z,1.27
2022-09-06T12:48:41.502Z,1.75
2022-09-06T12:53:54.786Z,1.70
2022-09-06T12:59:17.115Z,0.90
2022-09-06T13:04:28.087Z,1.60
2022-09-06T13:09:33.985Z,1.27
2022-09-06T13:14:38.273Z,1.50
2022-09-06T13:19:42.787Z,1.13
2022-09-06T13:24:49.207Z,1.20
2022-09-06T13:29:57.333Z,1.10
2022-09-06T13:35:01.796Z,1.27
2022-09-06T13:41:06.769Z,1.10
2022-09-06T13:46:07.986Z,1.20
2022-09-06T13:51:11.859Z,1.13
2022-09-06T13:56:16.998Z,1.10
2022-09-06T14:01:20.808Z,1.50
2022-09-06T14:06:24.693Z,1.80
2022-09-06T14:11:29.863Z,1.40
2022-09-06T14:16:34.471Z,1.52
2022-09-06T14:21:38.604Z,1.38
2022-09-06T14:26:43.694Z,1.65
2022-09-06T14:31:48.444Z,1.77
2022-09-06T14:36:52.407Z,1.60
2022-09-06T14:41:57.411Z,1.80
2022-09-06T14:47:01.128Z,1.23
2022-09-06T14:52:04.949Z,1.50
2022-09-06T14:57:10.185Z,1.50
2022-09-06T15:02:14.077Z,1.17
2022-09-06T15:07:18.375Z,1.60
2022-09-06T15:12:25.162Z,1.73
2022-09-06T15:17:28.927Z,2.00
2022-09-06T15:22:33.630Z,2.13
2022-09-06T15:27:38.626Z,2.10
2022-09-06T15:32:42.394Z,1.63
2022-09-06T15:37:46.392Z,1.80
2022-09-06T15:42:51.681Z,2.10
2022-09-06T15:47:56.126Z,1.80
2022-09-06T15:52:59.971Z,1.70
2022-09-06T15:58:05.101Z,2.00
2022-09-06T16:03:08.860Z,1.92
2022-09-06T16:08:12.980Z,1.75
2022-09-06T16:13:18.141Z,1.85
2022-09-06T16:18:21.892Z,1.80
2022-09-06T16:23:25.761Z,2.80
2022-09-06T16:28:31.815Z,2.00
2022-09-06T16:33:37.859Z,2.03
2022-09-06T16:38:42.487Z,1.90
2022-09-06T16:43:49.313Z,1.75
2022-09-06T16:48:53.700Z,2.10
2022-09-06T16:53:58.091Z,1.77
2022-09-06T16:59:05.602Z,1.83
2022-09-06T17:04:09.635Z,1.98
2022-09-06T17:09:14.507Z,2.05
2022-09-06T17:14:21.699Z,2.22
2022-09-06T17:19:25.930Z,1.60
2022-09-06T17:24:29.719Z,1.98
2022-09-06T17:29:35.399Z,1.90
2022-09-06T17:34:40.139Z,2.17
2022-09-06T17:39:43.846Z,2.08
2022-09-06T17:44:48.920Z,2.28
2022-09-06T17:49:52.789Z,2.28
2022-09-06T17:54:56.773Z,2.00
2022-09-06T18:00:02.253Z,2.17
2022-09-06T18:05:08.869Z,2.40
2022-09-06T18:10:15.086Z,2.20
2022-09-06T18:15:20.239Z,2.35
2022-09-06T18:20:24.119Z,2.42
2022-09-06T18:25:29.215Z,1.73
2022-09-06T18:30:35.787Z,2.05
2022-09-06T18:35:41.928Z,1.75
2022-09-06T18:40:53.208Z,1.83
2022-09-06T18:46:04.125Z,1.60
2022-09-06T18:51:09.236Z,1.77
2022-09-06T18:56:15.060Z,1.70
2022-09-06T19:01:21.006Z,2.90
2022-09-06T19:06:25.281Z,2.35
2022-09-06T19:11:29.612Z,1.83
2022-09-06T19:16:35.113Z,1.90
2022-09-06T19:21:42.209Z,2.60
2022-09-06T19:26:46.963Z,1.85
2022-09-06T19:31:52.963Z,1.80
2022-09-06T19:36:57.268Z,1.73
2022-09-06T19:42:01.002Z,1.63
2022-09-06T19:47:06.228Z,2.00
2022-09-06T19:52:11.557Z,1.58
2022-09-06T19:57:15.369Z,2.10
2022-09-06T20:02:20.542Z,1.95
2022-09-06T20:07:24.322Z,1.65
2022-09-06T20:12:29.755Z,1.27
2022-09-06T20:17:35.333Z,1.85
2022-09-06T20:22:39.192Z,1.60
2022-09-06T20:27:44.638Z,1.50
2022-09-06T20:32:52.170Z,2.10
2022-09-06T20:37:56.579Z,2.25
2022-09-06T20:43:02.210Z,1.60
2022-09-06T20:48:08.411Z,2.40
2022-09-06T20:53:13.687Z,3.25
2022-09-06T20:58:17.894Z,3.45
2022-09-06T21:03:23.273Z,4.10
2022-09-06T21:08:28.355Z,4.40
2022-09-06T21:13:35.398Z,4.60
2022-09-06T21:18:40.450Z,4.40
2022-09-06T21:23:44.157Z,4.80
2022-09-06T21:28:51.522Z,3.95
2022-09-06T21:33:58.598Z,3.78
2022-09-06T21:39:03.676Z,4.07
2022-09-06T21:44:10.495Z,3.53
2022-09-06T21:49:15.580Z,3.72
2022-09-06T21:54:20.673Z,4.15
2022-09-06T21:59:24.483Z,3.47
2022-09-06T22:04:29.777Z,3.47
2022-09-06T22:09:33.438Z,2.97
2022-09-06T22:14:37.335Z,2.08
2022-09-06T22:19:43.097Z,2.75
2022-09-06T22:24:46.933Z,2.73
2022-09-06T22:29:50.725Z,2.28
2022-09-06T22:34:55.858Z,4.13
2022-09-06T22:39:59.969Z,4.00
2022-09-06T22:45:04.219Z,4.55
2022-09-06T22:50:10.699Z,5.28
2022-09-06T22:55:14.520Z,5.70
2022-09-06T23:00:19.036Z,5.93
2022-09-06T23:05:24.333Z,4.30
2022-09-06T23:10:28.430Z,3.50
2022-09-06T23:15:36.035Z,3.15
2022-09-06T23:20:41.098Z,2.50
2022-09-06T23:25:44.881Z,2.05
2022-09-06T23:30:48.592Z,1.30
2022-09-06T23:35:56.729Z,0.93
2022-09-06T23:41:00.440Z,0.60
2022-09-06T23:46:04.569Z,1.05
2022-09-06T23:51:10.247Z,1.23
2022-09-06T23:56:13.916Z,0.98
